Time;durP1;ratioP1;P1;durP2;ratioP2;P2;SDS_P1;SDS_P2;PMS_P1;PMS_P2;Temp;Humidity;BMP_temperature;BMP_pressure;BME280_temperature;BME280_humidity;BME280_pressure;Samples;Min_cycle;Max_cycle;Signal;HPM_P1;HPM_P2
2022/09/23 00:01:32;;;;;;;7.25;3.90;;;12.00;99.90;;;;;;5017032;28;20551;-69
2022/09/23 00:03:59;;;;;;;9.13;4.45;;;11.90;99.90;;;;;;5012355;28;20038;-69
2022/09/23 00:06:27;;;;;;;7.00;3.80;;;11.90;99.90;;;;;;5014555;28;20030;-69
2022/09/23 00:08:53;;;;;;;7.13;3.78;;;11.80;99.90;;;;;;5013148;28;20050;-69
2022/09/23 00:11:22;;;;;;;6.03;3.53;;;11.90;99.90;;;;;;5052731;28;20045;-69
2022/09/23 00:13:50;;;;;;;7.82;3.97;;;11.80;99.90;;;;;;5023862;28;20048;-70
2022/09/23 00:16:22;;;;;;;6.13;3.72;;;11.80;99.90;;;;;;5013811;28;20087;-70
2022/09/23 00:18:50;;;;;;;6.88;4.15;;;11.80;99.90;;;;;;5027950;28;20044;-70
2022/09/23 00:21:18;;;;;;;7.00;3.83;;;11.80;99.90;;;;;;5008523;28;20092;-71
2022/09/23 00:23:43;;;;;;;7.63;3.90;;;11.80;99.90;;;;;;5039032;28;20038;-69
2022/09/23 00:26:12;;;;;;;7.93;4.15;;;11.70;99.90;;;;;;5007969;28;20040;-70
2022/09/23 00:28:39;;;;;;;18.15;4.75;;;11.70;99.90;;;;;;5010979;28;20038;-69
2022/09/23 00:31:08;;;;;;;7.60;4.03;;;11.70;99.90;;;;;;5006390;28;20035;-71
2022/09/23 00:33:33;;;;;;;7.80;3.78;;;11.70;99.90;;;;;;5008769;28;20403;-70
2022/09/23 00:36:04;;;;;;;8.50;4.32;;;11.70;99.90;;;;;;5011736;28;20121;-70
2022/09/23 00:38:30;;;;;;;8.32;4.28;;;11.70;99.90;;;;;;5014437;28;20064;-70
2022/09/23 00:40:57;;;;;;;8.73;4.50;;;11.70;99.90;;;;;;5012842;28;20087;-75
2022/09/23 00:43:38;;;;;;;13.75;4.60;;;11.70;99.90;;;;;;5012274;28;20041;-70
2022/09/23 00:46:07;;;;;;;7.28;4.18;;;11.70;99.90;;;;;;5008174;28;20072;-70
2022/09/23 00:48:34;;;;;;;8.52;4.03;;;11.70;99.90;;;;;;5012816;28;20120;-69
2022/09/23 00:51:00;;;;;;;7.47;4.13;;;11.60;99.90;;;;;;5012472;28;20049;-69
2022/09/23 00:53:27;;;;;;;7.70;3.95;;;11.60;99.90;;;;;;5046460;28;20037;-69
2022/09/23 00:56:00;;;;;;;8.88;4.00;;;11.60;99.90;;;;;;5012367;28;20038;-69
2022/09/23 00:58:31;;;;;;;8.38;4.18;;;11.60;99.90;;;;;;5010306;28;20029;-71
2022/09/23 01:01:01;;;;;;;9.07;4.50;;;11.60;99.90;;;;;;5018128;28;20100;-72
2022/09/23 01:03:27;;;;;;;9.13;4.22;;;11.50;99.90;;;;;;5015003;28;20070;-68
2022/09/23 01:05:52;;;;;;;8.45;4.63;;;11.50;99.90;;;;;;5010557;28;20045;-70
2022/09/23 01:08:19;;;;;;;9.57;4.63;;;11.50;99.90;;;;;;5010831;28;20030;-70
2022/09/23 01:11:01;;;;;;;10.55;4.60;;;11.50;99.90;;;;;;5013149;28;20057;-69
2022/09/23 01:13:40;;;;;;;8.13;4.00;;;11.50;99.90;;;;;;5012213;28;20443;-68
2022/09/23 01:16:19;;;;;;;12.13;4.82;;;11.50;99.90;;;;;;5005168;28;20045;-72
2022/09/23 01:19:23;;;;;;;9.85;4.15;;;11.50;99.90;;;;;;5018466;28;20536;-70
2022/09/23 01:22:21;;;;;;;11.70;4.45;;;11.50;99.90;;;;;;5008614;28;20103;-69
2022/09/23 01:25:04;;;;;;;11.13;4.20;;;11.50;99.90;;;;;;5009641;28;20025;-69
2022/09/23 01:28:17;;;;;;;7.70;3.97;;;11.50;99.90;;;;;;5012307;28;20389;-70
2022/09/23 01:31:08;;;;;;;6.63;3.88;;;11.50;99.90;;;;;;5016486;28;20042;-69
2022/09/23 01:33:53;;;;;;;9.82;4.82;;;11.50;99.90;;;;;;5010871;28;20107;-70
2022/09/23 01:36:38;;;;;;;9.38;4.70;;;11.50;99.90;;;;;;5008949;28;20030;-70
2022/09/23 01:39:28;;;;;;;8.68;4.47;;;11.40;99.90;;;;;;5013672;28;20049;-70
2022/09/23 01:42:16;;;;;;;7.95;4.63;;;11.40;99.90;;;;;;5010126;28;20049;-70
2022/09/23 01:44:55;;;;;;;11.65;4.65;;;11.40;99.90;;;;;;5020931;28;20029;-69
2022/09/23 01:47:33;;;;;;;10.88;4.65;;;11.40;99.90;;;;;;5013593;28;20119;-71
2022/09/23 01:50:01;;;;;;;10.15;4.35;;;11.30;99.90;;;;;;5016977;28;20100;-70
2022/09/23 01:52:41;;;;;;;8.65;4.55;;;11.40;99.90;;;;;;5008836;28;20120;-70
2022/09/23 01:55:16;;;;;;;11.13;4.60;;;11.40;99.90;;;;;;5013233;28;20706;-70
2022/09/23 01:58:02;;;;;;;10.32;4.75;;;11.30;99.90;;;;;;5007011;28;20100;-70
2022/09/23 02:00:33;;;;;;;13.40;5.07;;;11.40;99.90;;;;;;5009696;28;20049;-70
2022/09/23 02:03:19;;;;;;;7.20;4.53;;;11.40;99.90;;;;;;5009206;28;20037;-70
2022/09/23 02:05:55;;;;;;;8.35;4.85;;;11.40;99.90;;;;;;5017110;28;20073;-70
2022/09/23 02:08:33;;;;;;;8.98;4.20;;;11.40;99.90;;;;;;5011270;28;20026;-71
2022/09/23 02:11:07;;;;;;;7.35;4.30;;;11.40;99.90;;;;;;5013227;28;20116;-71
2022/09/23 02:13:51;;;;;;;8.82;4.80;;;11.50;99.90;;;;;;5048402;28;20033;-70
2022/09/23 02:16:20;;;;;;;10.07;4.32;;;11.50;99.90;;;;;;5030079;28;20030;-70
2022/09/23 02:18:52;;;;;;;10.77;4.38;;;11.40;99.90;;;;;;5022399;28;20049;-70
2022/09/23 02:21:20;;;;;;;9.00;3.75;;;11.40;99.90;;;;;;5013131;28;20037;-69
2022/09/23 02:23:53;;;;;;;12.00;5.18;;;11.40;99.90;;;;;;5010833;28;20038;-69
2022/09/23 02:26:29;;;;;;;12.18;5.22;;;11.30;99.90;;;;;;5022782;28;20043;-70
2022/09/23 02:29:15;;;;;;;7.10;3.97;;;11.30;99.90;;;;;;5029872;28;20038;-70
2022/09/23 02:31:52;;;;;;;9.30;4.65;;;11.20;99.90;;;;;;5027491;28;20037;-70
2022/09/23 02:34:22;;;;;;;7.20;4.03;;;11.20;99.90;;;;;;5016377;28;20057;-69
2022/09/23 02:36:48;;;;;;;9.88;4.22;;;11.20;99.90;;;;;;5008548;28;20042;-70
2022/09/23 02:39:15;;;;;;;13.02;4.57;;;11.20;99.90;;;;;;5010941;28;20077;-70
2022/09/23 02:42:06;;;;;;;7.60;4.45;;;11.20;99.90;;;;;;5014620;28;20034;-70
2022/09/23 02:44:32;;;;;;;9.90;4.80;;;11.10;99.90;;;;;;5016349;28;20118;-71
2022/09/23 02:46:58;;;;;;;12.10;4.78;;;11.20;99.90;;;;;;5009117;28;20030;-70
2022/09/23 02:49:29;;;;;;;8.40;4.72;;;11.20;99.90;;;;;;5012429;28;20100;-71
2022/09/23 02:51:55;;;;;;;;;;;11.10;99.90;;;;;;5013341;28;20037;-70
2022/09/23 02:54:24;;;;;;;10.23;4.45;;;11.10;99.90;;;;;;5015195;28;19939;-70
2022/09/23 02:56:52;;;;;;;11.55;4.93;;;11.10;99.90;;;;;;5018489;28;20057;-70
2022/09/23 02:59:21;;;;;;;12.32;5.18;;;11.10;99.90;;;;;;5028863;28;20098;-70
2022/09/23 03:02:21;;;;;;;11.15;3.88;;;11.10;99.90;;;;;;5043773;28;20125;-70
2022/09/23 03:04:57;;;;;;;9.43;4.40;;;11.10;99.90;;;;;;5029556;28;20032;-70
2022/09/23 03:07:25;;;;;;;9.63;4.93;;;11.10;99.90;;;;;;5026584;28;20072;-70
2022/09/23 03:10:20;;;;;;;10.90;4.57;;;11.20;99.90;;;;;;5012719;28;20119;-70
2022/09/23 03:13:12;;;;;;;8.35;4.07;;;11.20;99.90;;;;;;5021149;28;20129;-71
2022/09/23 03:15:46;;;;;;;13.00;4.90;;;11.20;99.90;;;;;;5044670;28;20068;-70
2022/09/23 03:18:34;;;;;;;9.77;4.70;;;11.20;99.90;;;;;;5015648;28;20112;-70
2022/09/23 03:21:08;;;;;;;9.32;4.10;;;11.20;99.90;;;;;;5011032;28;20455;-71
2022/09/23 03:23:36;;;;;;;12.55;4.45;;;11.30;99.90;;;;;;5018743;28;20516;-70
2022/09/23 03:26:11;;;;;;;9.38;4.47;;;11.30;99.90;;;;;;5040106;28;20040;-71
2022/09/23 03:28:42;;;;;;;9.48;4.65;;;11.30;99.90;;;;;;5012982;28;20026;-69
2022/09/23 03:31:09;;;;;;;;;;;11.30;99.90;;;;;;5042111;28;20493;-70
2022/09/23 03:33:39;;;;;;;11.15;3.92;;;11.30;99.90;;;;;;5016382;28;20380;-71
2022/09/23 03:39:04;;;;;;;10.23;4.38;;;11.40;99.90;;;;;;5007624;28;20049;-71
2022/09/23 03:41:42;;;;;;;17.35;5.03;;;11.40;99.90;;;;;;5055977;28;20389;-70
2022/09/23 03:44:09;;;;;;;7.68;4.25;;;11.50;99.90;;;;;;5012106;28;20072;-70
2022/09/23 03:46:35;;;;;;;11.65;4.15;;;11.50;99.90;;;;;;5009078;28;20038;-70
2022/09/23 03:49:12;;;;;;;8.52;4.13;;;11.50;99.90;;;;;;5006847;28;20053;-71
2022/09/23 03:51:38;;;;;;;9.60;4.57;;;11.50;99.90;;;;;;5017862;28;20045;-71
2022/09/23 03:54:04;;;;;;;14.23;4.75;;;11.50;99.90;;;;;;5011797;28;20094;-70
2022/09/23 03:56:29;;;;;;;12.13;4.28;;;11.60;99.90;;;;;;5021016;28;20037;-70
2022/09/23 03:58:55;;;;;;;11.82;5.20;;;11.60;99.90;;;;;;5030048;28;20051;-69
2022/09/23 04:01:20;;;;;;;9.10;3.85;;;11.60;99.90;;;;;;5009168;28;20168;-70
2022/09/23 04:03:46;;;;;;;10.20;4.40;;;11.60;99.90;;;;;;5012137;28;20034;-70
2022/09/23 04:06:12;;;;;;;10.43;4.40;;;11.60;99.90;;;;;;5009254;28;20572;-70
2022/09/23 04:08:37;;;;;;;10.48;4.38;;;11.60;99.90;;;;;;5007958;28;20474;-69
2022/09/23 04:11:03;;;;;;;9.68;3.97;;;11.60;99.90;;;;;;5055044;28;20038;-71
2022/09/23 04:13:30;;;;;;;11.38;3.85;;;11.60;99.90;;;;;;5015702;28;20080;-70
2022/09/23 04:15:56;;;;;;;9.20;4.20;;;11.50;99.90;;;;;;5017904;28;20037;-70
2022/09/23 04:18:22;;;;;;;8.63;4.35;;;11.60;99.90;;;;;;5008663;28;20456;-70
2022/09/23 04:20:48;;;;;;;6.75;3.85;;;11.50;99.90;;;;;;5007672;28;20054;-69
2022/09/23 04:23:13;;;;;;;8.27;3.95;;;11.50;99.90;;;;;;5011885;28;20033;-71
2022/09/23 04:25:49;;;;;;;6.78;3.67;;;11.50;99.90;;;;;;5018529;28;22843;-70
2022/09/23 04:28:15;;;;;;;6.53;3.83;;;11.50;99.90;;;;;;5009129;28;20038;-70
2022/09/23 04:30:42;;;;;;;8.95;3.90;;;11.50;99.90;;;;;;5011731;28;20440;-70
2022/09/23 04:33:12;;;;;;;8.45;3.55;;;11.50;99.90;;;;;;5003803;28;20032;-70
2022/09/23 04:35:39;;;;;;;7.73;3.67;;;11.50;99.90;;;;;;5008089;28;20033;-70
2022/09/23 04:38:05;;;;;;;10.10;3.83;;;11.60;99.90;;;;;;5043494;28;20093;-70
2022/09/23 04:40:32;;;;;;;6.97;3.63;;;11.50;99.90;;;;;;5008698;28;20390;-70
2022/09/23 04:42:57;;;;;;;8.00;4.10;;;11.60;99.90;;;;;;5007472;28;20026;-71
2022/09/23 04:45:23;;;;;;;6.72;3.47;;;11.60;99.90;;;;;;5007789;28;20030;-69
2022/09/23 04:47:49;;;;;;;6.10;3.55;;;11.70;99.90;;;;;;5019312;28;20113;-70
2022/09/23 04:50:15;;;;;;;8.20;4.50;;;11.70;99.90;;;;;;5016337;28;20041;-71
2022/09/23 04:52:40;;;;;;;10.82;3.80;;;11.70;99.90;;;;;;5010456;28;20037;-70
2022/09/23 04:55:07;;;;;;;5.53;2.80;;;11.70;99.90;;;;;;5013763;28;20392;-70
2022/09/23 04:57:33;;;;;;;7.22;3.47;;;11.70;99.90;;;;;;5006005;28;20050;-70
2022/09/23 04:59:59;;;;;;;9.63;3.45;;;11.70;99.90;;;;;;5006608;28;20041;-70
2022/09/23 05:02:26;;;;;;;8.93;3.38;;;11.70;99.90;;;;;;5007306;28;20053;-70
2022/09/23 05:04:51;;;;;;;5.53;2.75;;;11.70;99.90;;;;;;5012961;28;20025;-70
2022/09/23 05:07:17;;;;;;;9.65;3.33;;;11.80;99.90;;;;;;5010299;28;20025;-70
2022/09/23 05:09:43;;;;;;;12.48;3.08;;;11.80;99.90;;;;;;5040502;28;20029;-70
2022/09/23 05:12:09;;;;;;;7.90;3.33;;;11.80;99.90;;;;;;5007658;28;20038;-69
2022/09/23 05:14:34;;;;;;;6.30;3.42;;;11.80;99.90;;;;;;5020261;28;20029;-70
2022/09/23 05:17:00;;;;;;;5.45;2.85;;;11.80;99.90;;;;;;5006405;28;20030;-70
2022/09/23 05:19:26;;;;;;;8.57;3.10;;;11.80;99.90;;;;;;5011135;28;20045;-69
2022/09/23 05:21:51;;;;;;;8.63;3.20;;;11.80;99.90;;;;;;5009685;28;20037;-70
2022/09/23 05:24:18;;;;;;;5.70;2.78;;;11.80;99.90;;;;;;5010118;28;20236;-70
2022/09/23 05:26:43;;;;;;;8.05;2.75;;;11.80;99.90;;;;;;5016232;28;20052;-70
2022/09/23 05:29:09;;;;;;;8.52;3.30;;;11.80;99.90;;;;;;5012586;28;20034;-70
2022/09/23 05:31:35;;;;;;;11.20;3.22;;;11.80;99.90;;;;;;5005582;28;20034;-70
2022/09/23 05:34:03;;;;;;;6.18;2.83;;;11.80;99.90;;;;;;5024868;28;20040;-72
2022/09/23 05:36:31;;;;;;;7.10;3.13;;;11.80;99.90;;;;;;5014821;28;20045;-70
2022/09/23 05:38:57;;;;;;;6.38;3.13;;;11.80;99.90;;;;;;5012446;28;20057;-70
2022/09/23 05:41:24;;;;;;;5.75;2.85;;;11.80;99.90;;;;;;5027922;28;20045;-69
2022/09/23 05:43:54;;;;;;;6.47;3.17;;;11.80;99.90;;;;;;5032503;28;20028;-70
2022/09/23 05:46:28;;;;;;;7.22;3.05;;;11.90;99.90;;;;;;5015110;28;20068;-71
2022/09/23 05:48:58;;;;;;;5.90;2.72;;;11.80;99.90;;;;;;5014730;28;20025;-71
2022/09/23 05:51:25;;;;;;;10.57;3.50;;;11.90;99.90;;;;;;4997031;28;20038;-70
2022/09/23 05:53:52;;;;;;;5.65;2.63;;;11.90;99.90;;;;;;4998081;28;20457;-70
2022/09/23 05:56:23;;;;;;;4.93;2.60;;;11.90;99.90;;;;;;5017440;28;20037;-70
2022/09/23 05:58:54;;;;;;;7.10;3.40;;;11.90;99.90;;;;;;5016615;28;20041;-70
2022/09/23 06:01:24;;;;;;;5.88;3.00;;;11.90;99.90;;;;;;5010001;28;20558;-71
2022/09/23 06:03:54;;;;;;;;;;;11.90;99.90;;;;;;5019342;28;20103;-70
2022/09/23 06:06:31;;;;;;;5.63;3.10;;;11.90;99.90;;;;;;5022162;28;20023;-70
2022/09/23 06:08:58;;;;;;;7.05;3.25;;;12.00;99.90;;;;;;5023076;28;20474;-70
2022/09/23 06:11:23;;;;;;;7.68;3.17;;;12.00;99.90;;;;;;5017575;28;20129;-70
2022/09/23 06:13:54;;;;;;;6.60;2.70;;;12.00;99.90;;;;;;5015202;28;20033;-70
2022/09/23 06:16:20;;;;;;;;;;;12.10;99.90;;;;;;5014156;28;20037;-69
2022/09/23 06:18:45;;;;;;;6.25;3.10;;;12.10;99.90;;;;;;5010751;28;19928;-69
2022/09/23 06:21:16;;;;;;;8.40;3.30;;;12.10;99.90;;;;;;5011396;28;20033;-70
2022/09/23 06:23:42;;;;;;;;;;;12.20;99.90;;;;;;5044107;28;20531;-71
2022/09/23 06:26:10;;;;;;;10.55;3.20;;;12.20;99.90;;;;;;5014753;28;20353;-71
2022/09/23 06:28:39;;;;;;;11.40;3.40;;;12.20;99.90;;;;;;5008961;28;20049;-71
2022/09/23 06:31:12;;;;;;;6.43;3.00;;;12.30;99.90;;;;;;5013967;28;20381;-71
2022/09/23 06:33:38;;;;;;;7.72;2.70;;;12.30;99.90;;;;;;5013041;28;20497;-70
2022/09/23 06:36:05;;;;;;;6.10;2.95;;;12.30;99.90;;;;;;5009920;28;20034;-71
2022/09/23 06:38:35;;;;;;;7.95;2.90;;;12.40;99.90;;;;;;5009623;28;20136;-71
2022/09/23 06:41:02;;;;;;;7.65;2.80;;;12.40;99.90;;;;;;5021383;28;20040;-70
2022/09/23 06:43:28;;;;;;;10.38;3.28;;;12.50;99.90;;;;;;5016407;28;20025;-71
2022/09/23 06:45:56;;;;;;;6.85;3.03;;;12.40;99.90;;;;;;5014372;28;20038;-70
2022/09/23 06:48:28;;;;;;;5.53;2.80;;;12.50;99.90;;;;;;5011276;28;20055;-70
2022/09/23 06:50:58;;;;;;;6.85;3.60;;;12.50;99.90;;;;;;5025028;28;20034;-71
2022/09/23 06:53:24;;;;;;;6.00;3.05;;;12.50;99.90;;;;;;5030364;28;20022;-71
2022/09/23 06:56:01;;;;;;;19.90;3.83;;;12.60;99.90;;;;;;5023371;28;20497;-72
2022/09/23 06:58:27;;;;;;;5.93;2.60;;;12.60;99.90;;;;;;5008704;28;20072;-73
2022/09/23 07:00:53;;;;;;;5.30;2.60;;;12.60;99.90;;;;;;5037508;28;20644;-71
2022/09/23 07:03:20;;;;;;;6.82;3.47;;;12.70;99.90;;;;;;5003049;28;20614;-71
2022/09/23 07:05:46;;;;;;;8.65;2.92;;;12.80;99.90;;;;;;5019774;28;20026;-72
2022/09/23 07:08:12;;;;;;;5.95;2.78;;;12.80;99.90;;;;;;5016094;28;20713;-70
2022/09/23 07:10:38;;;;;;;7.18;2.78;;;12.80;99.90;;;;;;5004941;28;20583;-70
2022/09/23 07:13:03;;;;;;;5.53;2.40;;;12.90;99.90;;;;;;5022374;28;20665;-71
2022/09/23 07:15:29;;;;;;;9.18;2.83;;;12.90;99.90;;;;;;5026563;28;20068;-71
2022/09/23 07:17:55;;;;;;;7.20;3.47;;;13.00;99.90;;;;;;5026949;28;20045;-71
2022/09/23 07:20:21;;;;;;;8.20;2.85;;;13.00;99.90;;;;;;5012029;28;20029;-70
2022/09/23 07:22:51;;;;;;;4.40;2.72;;;13.00;99.90;;;;;;5004747;28;20045;-71
2022/09/23 07:25:21;;;;;;;12.85;3.40;;;13.10;99.90;;;;;;5005882;28;20033;-71
2022/09/23 07:27:47;;;;;;;6.32;2.67;;;13.20;99.90;;;;;;5034737;28;20129;-71
2022/09/23 07:30:13;;;;;;;4.45;2.97;;;13.20;99.90;;;;;;5004418;28;20091;-71
2022/09/23 07:32:40;;;;;;;5.93;3.10;;;13.30;99.90;;;;;;5004173;28;20172;-70
2022/09/23 07:35:06;;;;;;;8.45;3.15;;;13.40;99.90;;;;;;5004773;28;20089;-72
2022/09/23 07:37:32;;;;;;;10.50;4.03;;;13.50;99.90;;;;;;5010712;28;20543;-72
2022/09/23 07:39:57;;;;;;;8.63;3.35;;;13.60;99.90;;;;;;5025102;28;20037;-72
2022/09/23 07:42:23;;;;;;;7.32;2.83;;;13.60;99.90;;;;;;5021768;28;20038;-71
2022/09/23 07:44:48;;;;;;;6.32;2.63;;;13.70;99.90;;;;;;4995193;28;20131;-70
2022/09/23 07:47:14;;;;;;;6.30;2.25;;;13.80;99.90;;;;;;4993584;28;20038;-70
2022/09/23 07:49:40;;;;;;;10.02;3.05;;;13.90;99.90;;;;;;4993422;28;20137;-71
2022/09/23 07:52:06;;;;;;;4.95;2.92;;;14.00;99.90;;;;;;4993572;28;20045;-71
2022/09/23 07:54:32;;;;;;;10.30;2.40;;;14.00;99.90;;;;;;5011572;28;20770;-70
2022/09/23 07:56:58;;;;;;;5.57;2.78;;;14.10;99.90;;;;;;5019961;28;20037;-70
2022/09/23 07:59:25;;;;;;;8.70;2.67;;;14.10;99.90;;;;;;5013831;28;20046;-70
2022/09/23 08:01:51;;;;;;;5.38;2.70;;;14.20;99.90;;;;;;5001998;28;20041;-70
2022/09/23 08:04:21;;;;;;;6.78;2.88;;;14.30;99.90;;;;;;5010357;28;20057;-70
2022/09/23 08:06:49;;;;;;;7.30;2.75;;;14.30;99.90;;;;;;5004891;28;20822;-71
2022/09/23 08:09:17;;;;;;;8.15;3.03;;;14.40;99.90;;;;;;5003155;28;20038;-70
2022/09/23 08:11:43;;;;;;;12.13;3.78;;;14.40;99.90;;;;;;5010120;28;20025;-70
2022/09/23 08:14:13;;;;;;;10.68;3.80;;;14.50;99.90;;;;;;5011829;28;20037;-70
2022/09/23 08:16:39;;;;;;;6.75;3.25;;;14.50;99.90;;;;;;5005139;28;20128;-71
2022/09/23 08:19:05;;;;;;;13.82;3.97;;;14.50;99.90;;;;;;5004848;28;20041;-71
2022/09/23 08:21:32;;;;;;;6.93;3.10;;;14.60;99.90;;;;;;5051225;28;20045;-70
2022/09/23 08:23:58;;;;;;;7.78;2.45;;;14.60;99.90;;;;;;5019539;28;20089;-70
2022/09/23 08:26:23;;;;;;;5.25;2.42;;;14.70;99.90;;;;;;5005660;28;20042;-71
2022/09/23 08:28:52;;;;;;;6.80;3.17;;;14.80;99.90;;;;;;5010923;28;20505;-71
2022/09/23 08:31:18;;;;;;;6.03;2.47;;;14.80;99.90;;;;;;5002091;28;21105;-71
2022/09/23 08:33:44;;;;;;;4.00;2.13;;;14.80;99.90;;;;;;5005124;28;20405;-71
2022/09/23 08:36:09;;;;;;;6.38;2.35;;;14.90;99.90;;;;;;5006409;28;20041;-71
2022/09/23 08:38:35;;;;;;;5.43;2.50;;;14.90;99.90;;;;;;5006831;28;20084;-71
2022/09/23 08:41:15;;;;;;;6.22;2.47;;;15.00;99.90;;;;;;5007050;28;20121;-70
2022/09/23 08:43:47;;;;;;;5.68;2.53;;;15.10;99.90;;;;;;5007408;28;20049;-73
2022/09/23 08:46:23;;;;;;;4.47;2.40;;;15.20;99.90;;;;;;5012697;28;20709;-72
2022/09/23 08:48:49;;;;;;;8.75;2.80;;;15.30;99.90;;;;;;5009442;28;20021;-70
2022/09/23 08:51:24;;;;;;;5.88;2.50;;;15.30;99.90;;;;;;5005978;28;20026;-71
2022/09/23 08:53:49;;;;;;;6.25;3.03;;;15.30;99.90;;;;;;5016005;28;20519;-70
2022/09/23 08:56:18;;;;;;;5.78;2.85;;;15.40;99.90;;;;;;5012228;28;20154;-71
2022/09/23 08:59:25;;;;;;;7.53;2.50;;;15.40;99.90;;;;;;5003480;28;20073;-71
2022/09/23 09:01:54;;;;;;;6.57;3.05;;;15.50;99.90;;;;;;5017453;28;20034;-71
2022/09/23 09:04:37;;;;;;;6.40;2.30;;;15.50;99.90;;;;;;5001789;28;20030;-71
2022/09/23 09:07:06;;;;;;;5.10;2.42;;;15.60;99.90;;;;;;5010795;28;20053;-71
2022/09/23 09:09:52;;;;;;;5.25;2.50;;;15.60;99.90;;;;;;5007559;28;20037;-71
2022/09/23 09:12:23;;;;;;;5.32;2.17;;;15.70;99.90;;;;;;5002671;28;20116;-73
2022/09/23 09:15:01;;;;;;;8.82;2.30;;;15.80;99.90;;;;;;5010083;28;20033;-71
2022/09/23 09:18:00;;;;;;;9.18;2.45;;;15.90;99.90;;;;;;5013768;28;20389;-70
2022/09/23 09:20:40;;;;;;;5.95;2.15;;;16.00;99.90;;;;;;5014043;28;20061;-71
2022/09/23 09:23:20;;;;;;;5.78;2.20;;;15.90;99.90;;;;;;5042568;28;20072;-70
2022/09/23 09:25:48;;;;;;;5.43;2.40;;;16.00;99.90;;;;;;4995478;28;20751;-72
2022/09/23 09:28:34;;;;;;;7.32;2.08;;;16.00;99.90;;;;;;4994998;28;20413;-71
2022/09/23 09:31:21;;;;;;;7.38;2.28;;;16.10;99.90;;;;;;4995078;28;20061;-72
2022/09/23 09:34:05;;;;;;;10.05;2.67;;;16.10;99.90;;;;;;4983896;28;20066;-71
2022/09/23 09:36:42;;;;;;;8.18;2.45;;;16.20;99.90;;;;;;5026481;28;20108;-71
2022/09/23 09:39:12;;;;;;;8.82;2.60;;;16.30;99.90;;;;;;5015048;28;20042;-70
2022/09/23 09:41:40;;;;;;;6.35;2.67;;;16.30;99.90;;;;;;5014429;28;20060;-70
2022/09/23 09:44:20;;;;;;;7.30;2.25;;;16.40;99.90;;;;;;5011545;28;20053;-70
2022/09/23 09:46:55;;;;;;;6.55;2.95;;;16.60;99.90;;;;;;5023396;28;20029;-71
2022/09/23 09:49:47;;;;;;;5.13;2.78;;;16.60;99.90;;;;;;5008946;28;20382;-69
2022/09/23 09:52:28;;;;;;;12.25;2.67;;;16.70;99.90;;;;;;5044109;28;20115;-71
2022/09/23 09:54:58;;;;;;;6.88;2.30;;;16.70;99.90;;;;;;5006461;28;20030;-70
2022/09/23 09:57:31;;;;;;;5.85;2.35;;;16.80;99.90;;;;;;5008210;28;20042;-70
2022/09/23 10:00:17;;;;;;;8.18;2.13;;;16.90;99.90;;;;;;5041588;28;20068;-71
2022/09/23 10:02:43;;;;;;;7.80;2.45;;;16.90;99.90;;;;;;5010431;28;21345;-72
2022/09/23 10:05:25;;;;;;;6.55;2.80;;;17.00;99.90;;;;;;5007399;28;20045;-71
2022/09/23 10:07:52;;;;;;;4.40;1.92;;;17.00;99.90;;;;;;5021042;28;20029;-72
2022/09/23 10:10:24;;;;;;;9.43;2.47;;;17.00;99.90;;;;;;5006782;28;20042;-72
2022/09/23 10:12:51;;;;;;;5.93;2.08;;;17.10;99.90;;;;;;5005297;28;20041;-72
2022/09/23 10:15:40;;;;;;;7.97;2.30;;;17.10;99.90;;;;;;5003426;28;20030;-71
2022/09/23 10:18:18;;;;;;;6.65;2.42;;;17.10;99.90;;;;;;5014923;28;20088;-71
2022/09/23 10:20:45;;;;;;;7.85;2.70;;;17.20;99.90;;;;;;5010380;28;20022;-71
2022/09/23 10:23:19;;;;;;;7.07;2.72;;;17.20;99.90;;;;;;5004217;28;20717;-71
2022/09/23 10:25:59;;;;;;;6.35;3.00;;;17.20;99.90;;;;;;5018182;28;20026;-71
2022/09/23 10:28:40;;;;;;;4.82;2.60;;;17.20;99.90;;;;;;5016842;28;20081;-70
2022/09/23 10:31:07;;;;;;;4.78;2.30;;;17.30;99.90;;;;;;5011815;28;20034;-73
2022/09/23 10:33:38;;;;;;;6.03;2.80;;;17.30;99.90;;;;;;5007506;28;22931;-72
2022/09/23 10:36:08;;;;;;;10.50;2.65;;;17.40;99.90;;;;;;5015332;28;20117;-73
2022/09/23 10:38:34;;;;;;;9.90;3.03;;;17.40;99.90;;;;;;5011281;28;20049;-71
2022/09/23 10:47:41;;;;;;;5.38;1.90;;;17.60;99.90;;;;;;5001685;28;20041;-71
2022/09/23 10:50:13;;;;;;;5.18;1.80;;;17.70;99.90;;;;;;5009864;28;20045;-71
2022/09/23 10:53:02;;;;;;;5.03;2.60;;;17.80;99.90;;;;;;5012329;28;20048;-70
2022/09/23 10:55:51;;;;;;;8.60;2.03;;;18.00;99.90;;;;;;5062130;28;20057;-70
2022/09/23 10:58:54;;;;;;;6.75;2.28;;;18.10;99.90;;;;;;5007210;28;20054;-72
2022/09/23 11:01:42;;;;;;;4.90;1.80;;;18.10;99.90;;;;;;5028450;28;20451;-70
2022/09/23 11:04:10;;;;;;;3.92;1.55;;;18.10;99.90;;;;;;5020862;28;20444;-70
2022/09/23 11:07:00;;;;;;;7.18;2.40;;;18.00;99.90;;;;;;5021688;28;20029;-71
2022/09/23 11:09:42;;;;;;;7.15;2.25;;;18.00;99.90;;;;;;5008695;28;20038;-70
2022/09/23 11:12:16;;;;;;;2.50;1.40;;;18.00;99.90;;;;;;5012245;28;20053;-71
2022/09/23 11:14:44;;;;;;;4.18;1.52;;;17.80;99.90;;;;;;5011997;28;20044;-71
2022/09/23 11:17:31;;;;;;;4.57;1.75;;;17.80;99.90;;;;;;5012261;28;20033;-70
2022/09/23 11:20:16;;;;;;;2.70;1.17;;;17.70;99.90;;;;;;5035692;28;20068;-72
2022/09/23 11:22:52;;;;;;;5.45;1.65;;;17.70;99.90;;;;;;5019044;28;20037;-72
2022/09/23 11:25:49;;;;;;;10.18;2.38;;;17.70;99.90;;;;;;5008571;28;20065;-72
2022/09/23 11:28:22;;;;;;;5.38;1.80;;;17.60;99.90;;;;;;5008232;28;20032;-69
2022/09/23 11:31:24;;;;;;;9.10;1.52;;;17.60;99.90;;;;;;5009758;28;20037;-69
2022/09/23 11:34:09;;;;;;;8.25;1.95;;;17.60;99.90;;;;;;5015675;28;20160;-71
2022/09/23 11:36:43;;;;;;;3.00;1.40;;;17.60;99.90;;;;;;5030710;28;20057;-71
2022/09/23 11:39:19;;;;;;;9.73;2.40;;;17.50;99.90;;;;;;5009129;28;20502;-70
2022/09/23 11:41:48;;;;;;;4.05;1.70;;;17.60;99.90;;;;;;5042300;28;20034;-69
2022/09/23 11:44:27;;;;;;;6.38;2.15;;;17.70;99.90;;;;;;5008861;28;20034;-70
2022/09/23 11:47:20;;;;;;;4.07;1.20;;;17.70;99.90;;;;;;5007514;28;20534;-70
2022/09/23 11:50:04;;;;;;;4.53;1.63;;;17.80;99.90;;;;;;5010326;28;20050;-70
2022/09/23 11:52:44;;;;;;;4.78;1.55;;;17.80;99.90;;;;;;5020075;28;20041;-69
2022/09/23 11:55:27;;;;;;;3.72;1.65;;;17.80;99.90;;;;;;5008670;28;20586;-71
2022/09/23 11:58:02;;;;;;;2.63;1.25;;;17.80;99.90;;;;;;5008576;28;20041;-70
2022/09/23 12:00:34;;;;;;;5.15;1.98;;;17.80;99.90;;;;;;5029246;28;20029;-69
2022/09/23 12:03:12;;;;;;;5.28;2.40;;;17.80;99.90;;;;;;5015270;28;20117;-70
2022/09/23 12:05:53;;;;;;;9.82;2.25;;;17.80;99.90;;;;;;5017544;28;20028;-69
2022/09/23 12:08:33;;;;;;;3.55;1.80;;;17.80;99.90;;;;;;5011081;28;20034;-69
2022/09/23 12:11:01;;;;;;;3.42;1.50;;;17.80;99.90;;;;;;5012289;28;20057;-71
2022/09/23 12:13:30;;;;;;;4.05;1.50;;;17.80;99.90;;;;;;5016251;28;20049;-70
2022/09/23 12:16:30;;;;;;;7.60;2.50;;;17.80;99.90;;;;;;5021307;28;20476;-72
2022/09/23 12:19:26;;;;;;;7.40;1.80;;;17.90;99.90;;;;;;5019585;28;20061;-69
2022/09/23 12:22:29;;;;;;;4.63;1.85;;;18.00;99.90;;;;;;5009554;28;20044;-72
2022/09/23 12:25:22;;;;;;;4.28;1.80;;;18.00;99.90;;;;;;5029828;28;20191;-71
2022/09/23 12:27:51;;;;;;;4.47;2.40;;;18.10;99.90;;;;;;5028317;28;20075;-70
2022/09/23 12:30:24;;;;;;;7.65;2.50;;;18.10;99.90;;;;;;5030306;28;20052;-71
2022/09/23 12:32:50;;;;;;;3.60;2.08;;;18.20;99.90;;;;;;5012809;28;20058;-71
2022/09/23 12:35:31;;;;;;;7.20;2.85;;;18.30;99.90;;;;;;5011539;28;20805;-70
2022/09/23 12:37:59;;;;;;;7.05;2.47;;;18.50;99.90;;;;;;5009827;28;20538;-71
2022/09/23 12:40:29;;;;;;;4.43;2.30;;;18.50;99.90;;;;;;5039233;28;20056;-70
2022/09/23 12:42:58;;;;;;;4.50;2.30;;;18.50;99.90;;;;;;5007352;28;20057;-70
2022/09/23 12:45:31;;;;;;;3.92;2.33;;;18.40;99.90;;;;;;5007774;28;20385;-69
2022/09/23 12:48:23;;;;;;;7.53;2.63;;;18.40;99.90;;;;;;5011485;28;20041;-70
2022/09/23 12:51:11;;;;;;;4.32;1.90;;;18.30;99.90;;;;;;5013187;28;21323;-70
2022/09/23 12:53:53;;;;;;;5.28;2.45;;;18.20;99.90;;;;;;5006251;28;20034;-70
2022/09/23 12:56:23;;;;;;;4.60;2.88;;;18.20;99.90;;;;;;5011385;28;20030;-70
2022/09/23 12:58:49;;;;;;;4.93;2.33;;;18.20;99.90;;;;;;5014256;28;20029;-71
2022/09/23 13:01:19;;;;;;;7.10;2.33;;;18.20;99.90;;;;;;5023231;28;20029;-70
2022/09/23 13:06:39;;;;;;;5.82;3.03;;;18.20;99.90;;;;;;5022326;28;20052;-70
2022/09/23 13:09:29;;;;;;;5.38;2.90;;;18.30;99.90;;;;;;5007674;28;20022;-71
2022/09/23 13:12:01;;;;;;;6.70;2.95;;;18.30;99.90;;;;;;5033478;28;20025;-70
2022/09/23 13:14:28;;;;;;;6.47;2.83;;;18.30;99.90;;;;;;5007178;28;20022;-70
2022/09/23 13:16:57;;;;;;;6.55;2.72;;;18.30;99.90;;;;;;5022807;28;20028;-71
2022/09/23 13:19:25;;;;;;;7.40;3.30;;;18.30;99.90;;;;;;5007280;28;20044;-70
2022/09/23 13:21:58;;;;;;;9.38;3.42;;;18.30;99.90;;;;;;5006941;28;20046;-72
2022/09/23 13:24:27;;;;;;;6.90;3.58;;;18.30;99.90;;;;;;5007894;28;20092;-70
2022/09/23 13:27:14;;;;;;;9.60;3.88;;;18.40;99.90;;;;;;5015493;28;20034;-72